createdAt,value
2018-09-01T00:00:40.283Z,15.93
2018-09-01T00:03:08.908Z,15.78
2018-09-01T00:05:37.246Z,15.71
2018-09-01T00:08:05.518Z,15.65
2018-09-01T00:10:33.757Z,15.56
2018-09-01T00:13:01.879Z,15.63
2018-09-01T00:15:30.047Z,15.52
2018-09-01T00:17:58.180Z,15.53
2018-09-01T00:20:26.289Z,15.51
2018-09-01T00:22:54.599Z,15.46
2018-09-01T00:25:22.740Z,15.40
2018-09-01T00:27:50.755Z,15.34
2018-09-01T00:30:18.776Z,15.31
2018-09-01T00:32:46.779Z,15.33
2018-09-01T00:35:14.861Z,15.31
2018-09-01T00:37:48.434Z,15.25
2018-09-01T00:40:16.617Z,15.26
2018-09-01T00:42:44.740Z,15.20
2018-09-01T00:45:12.757Z,15.16
2018-09-01T00:47:40.955Z,15.13
2018-09-01T00:50:09.079Z,15.11
2018-09-01T00:52:37.128Z,15.09
2018-09-01T00:55:09.199Z,15.06
2018-09-01T00:57:37.252Z,15.00
2018-09-01T01:00:05.610Z,15.01
2018-09-01T01:02:34.048Z,15.03
2018-09-01T01:05:02.222Z,15.00
2018-09-01T01:07:30.257Z,15.01
2018-09-01T01:09:58.270Z,14.93
2018-09-01T01:12:26.292Z,14.93
2018-09-01T01:14:54.430Z,14.92
2018-09-01T01:17:22.479Z,15.18
2018-09-01T01:19:50.570Z,15.07
2018-09-01T01:22:18.650Z,14.93
2018-09-01T01:24:46.826Z,14.89
2018-09-01T01:27:14.924Z,14.83
2018-09-01T01:29:43.043Z,14.80
2018-09-01T01:32:11.179Z,14.80
2018-09-01T01:34:39.231Z,14.72
2018-09-01T01:37:07.277Z,14.68
2018-09-01T01:39:35.468Z,14.69
2018-09-01T01:42:03.500Z,14.62
2018-09-01T01:44:31.856Z,14.57
2018-09-01T01:46:59.975Z,14.48
2018-09-01T01:49:28.006Z,14.52
2018-09-01T01:51:56.116Z,14.49
2018-09-01T01:54:24.121Z,14.46
2018-09-01T01:56:52.161Z,14.42
2018-09-01T01:59:20.276Z,14.40
2018-09-01T02:01:48.398Z,14.39
2018-09-01T02:04:16.542Z,14.38
2018-09-01T02:06:44.582Z,14.39
2018-09-01T02:09:12.665Z,14.40
2018-09-01T02:11:40.660Z,14.33
2018-09-01T02:14:08.737Z,14.36
2018-09-01T02:16:36.814Z,14.28
2018-09-01T02:19:05.152Z,14.24
2018-09-01T02:21:33.244Z,14.33
2018-09-01T02:24:01.289Z,14.31
2018-09-01T02:26:29.368Z,14.24
2018-09-01T02:28:57.486Z,14.20
2018-09-01T02:31:25.607Z,14.22
2018-09-01T02:33:53.766Z,14.19
2018-09-01T02:36:21.823Z,14.20
2018-09-01T02:38:50.023Z,14.15
2018-09-01T02:41:18.237Z,14.13
2018-09-01T02:43:46.392Z,14.12
2018-09-01T02:46:14.390Z,14.09
2018-09-01T02:48:42.446Z,14.07
2018-09-01T02:51:10.740Z,14.18
2018-09-01T02:53:38.839Z,14.17
2018-09-01T02:56:06.843Z,14.11
2018-09-01T02:58:34.878Z,14.10
2018-09-01T03:01:08.476Z,14.01
2018-09-01T03:03:36.473Z,14.07
2018-09-01T03:06:04.605Z,14.05
2018-09-01T03:08:32.612Z,13.98
2018-09-01T03:11:00.624Z,14.02
2018-09-01T03:13:28.849Z,13.98
2018-09-01T03:15:56.905Z,14.03
2018-09-01T03:18:24.966Z,14.11
2018-09-01T03:20:53.159Z,14.15
2018-09-01T03:23:21.547Z,14.09
2018-09-01T03:25:49.634Z,14.05
2018-09-01T03:28:17.847Z,14.09
2018-09-01T03:30:45.976Z,14.05
2018-09-01T03:33:14.012Z,14.14
2018-09-01T03:35:42.136Z,14.13
2018-09-01T03:38:10.384Z,14.18
2018-09-01T03:40:38.748Z,14.17
2018-09-01T03:43:06.954Z,14.18
2018-09-01T03:45:35.209Z,14.19
2018-09-01T03:48:03.484Z,14.25
2018-09-01T03:50:31.789Z,14.28
2018-09-01T03:52:59.962Z,14.29
2018-09-01T03:55:28.068Z,14.30
2018-09-01T03:57:56.336Z,14.38
2018-09-01T04:00:27.359Z,14.37
2018-09-01T04:02:56.621Z,14.43
2018-09-01T04:05:24.733Z,14.52
2018-09-01T04:07:52.988Z,14.62
2018-09-01T04:10:21.100Z,14.67
2018-09-01T04:12:49.417Z,14.82
2018-09-01T04:15:17.528Z,15.08
2018-09-01T04:17:46.138Z,15.29
2018-09-01T04:20:14.293Z,15.59
2018-09-01T04:22:42.477Z,16.00
2018-09-01T04:25:10.845Z,16.44
2018-09-01T04:27:38.965Z,16.63
2018-09-01T04:30:07.325Z,17.16
2018-09-01T04:32:35.423Z,17.56
2018-09-01T04:35:03.671Z,18.03
2018-09-01T04:37:31.883Z,18.50
2018-09-01T04:39:59.927Z,18.69
2018-09-01T04:42:28.071Z,18.81
2018-09-01T04:44:56.432Z,18.94
2018-09-01T04:47:24.512Z,19.18
2018-09-01T04:49:52.812Z,19.41
2018-09-01T04:52:20.905Z,19.35
2018-09-01T04:54:49.076Z,19.27
2018-09-01T04:57:17.385Z,19.40
2018-09-01T04:59:45.731Z,19.02
2018-09-01T05:02:14.171Z,18.55
2018-09-01T05:04:42.347Z,18.30
2018-09-01T05:07:10.454Z,18.17
2018-09-01T05:09:38.781Z,18.27
2018-09-01T05:12:07.120Z,18.03
2018-09-01T05:14:35.366Z,17.76
2018-09-01T05:17:03.724Z,17.82
2018-09-01T05:19:31.758Z,17.97
2018-09-01T05:21:59.800Z,18.04
2018-09-01T05:24:27.893Z,18.29
2018-09-01T05:26:56.325Z,19.06
2018-09-01T05:29:24.556Z,19.90
2018-09-01T05:31:52.816Z,20.39
2018-09-01T05:34:21.099Z,21.64
2018-09-01T05:36:49.390Z,21.52
2018-09-01T05:39:18.191Z,21.23
2018-09-01T05:41:46.325Z,20.98
2018-09-01T05:44:14.720Z,21.03
2018-09-01T05:46:43.373Z,21.53
2018-09-01T05:49:11.833Z,21.99
2018-09-01T05:51:40.162Z,22.25
2018-09-01T05:54:08.907Z,22.12
2018-09-01T05:56:37.266Z,22.46
2018-09-01T05:59:05.877Z,23.18
2018-09-01T06:01:34.127Z,23.31
2018-09-01T06:04:03.393Z,23.19
2018-09-01T06:06:31.494Z,23.06
2018-09-01T06:08:59.835Z,22.37
2018-09-01T06:11:28.039Z,22.39
2018-09-01T06:13:56.293Z,22.56
2018-09-01T06:16:24.461Z,22.78
2018-09-01T06:18:52.613Z,22.66
2018-09-01T06:21:20.775Z,22.69
2018-09-01T06:23:49.257Z,22.79
2018-09-01T06:26:17.371Z,22.98
2018-09-01T06:28:48.598Z,23.00
2018-09-01T06:31:17.788Z,22.84
2018-09-01T06:33:46.012Z,22.90
2018-09-01T06:36:14.184Z,22.89
2018-09-01T06:38:42.411Z,23.29
2018-09-01T06:41:10.697Z,23.05
2018-09-01T06:43:39.011Z,23.02
2018-09-01T06:46:07.217Z,23.02
2018-09-01T06:48:35.468Z,22.59
2018-09-01T06:51:03.771Z,22.87
2018-09-01T06:53:31.969Z,22.70
2018-09-01T06:56:00.585Z,22.77
2018-09-01T06:58:28.774Z,23.12
2018-09-01T07:00:57.004Z,23.35
2018-09-01T07:03:25.272Z,23.43
2018-09-01T07:05:53.573Z,23.34
2018-09-01T07:08:21.753Z,23.54
2018-09-01T07:10:49.997Z,23.91
2018-09-01T07:13:18.263Z,23.96
2018-09-01T07:15:46.468Z,23.67
2018-09-01T07:18:14.733Z,23.82
2018-09-01T07:20:43.037Z,23.88
2018-09-01T07:23:11.448Z,23.76
2018-09-01T07:25:39.703Z,23.81
2018-09-01T07:28:08.707Z,23.71
2018-09-01T07:30:37.093Z,23.97
2018-09-01T07:33:05.618Z,23.97
2018-09-01T07:35:33.766Z,24.26
2018-09-01T07:38:02.082Z,24.37
2018-09-01T07:40:30.512Z,24.54
2018-09-01T07:42:58.740Z,24.78
2018-09-01T07:45:27.321Z,24.93
2018-09-01T07:47:55.543Z,25.49
2018-09-01T07:50:23.801Z,25.85
2018-09-01T07:52:52.097Z,25.69
2018-09-01T07:55:20.353Z,25.63
2018-09-01T07:57:48.722Z,25.67
2018-09-01T08:00:17.026Z,25.19
2018-09-01T08:02:45.467Z,25.33
2018-09-01T08:05:13.791Z,25.49
2018-09-01T08:07:42.048Z,25.64
2018-09-01T08:10:10.225Z,25.81
2018-09-01T08:12:38.991Z,26.23
2018-09-01T08:15:07.929Z,26.03
2018-09-01T08:17:36.471Z,25.74
2018-09-01T08:20:04.752Z,25.93
2018-09-01T08:22:32.960Z,26.32
2018-09-01T08:25:01.163Z,26.38
2018-09-01T08:27:29.486Z,26.02
2018-09-01T08:29:57.739Z,26.16
2018-09-01T08:32:25.885Z,26.69
2018-09-01T08:34:54.636Z,27.01
2018-09-01T08:37:23.238Z,26.81
2018-09-01T08:39:51.443Z,26.93
2018-09-01T08:42:19.873Z,26.91
2018-09-01T08:44:50.025Z,26.69
2018-09-01T08:47:22.728Z,26.86
2018-09-01T08:49:52.400Z,27.86
2018-09-01T08:52:21.581Z,27.70
2018-09-01T08:54:50.506Z,27.05
2018-09-01T08:57:19.433Z,27.52
2018-09-01T08:59:47.656Z,27.99
2018-09-01T09:02:15.965Z,27.90
2018-09-01T09:04:44.348Z,27.99
2018-09-01T09:07:13.265Z,28.17
2018-09-01T09:09:41.583Z,28.92
2018-09-01T09:12:09.969Z,28.92
2018-09-01T09:14:38.154Z,28.60
2018-09-01T09:17:06.721Z,28.31
2018-09-01T09:19:35.392Z,28.50
2018-09-01T09:22:04.255Z,28.42
2018-09-01T09:24:34.426Z,28.42
2018-09-01T09:27:12.084Z,28.49
2018-09-01T09:29:40.706Z,28.53
2018-09-01T09:32:09.065Z,29.02
2018-09-01T09:34:37.640Z,29.32
2018-09-01T09:37:06.369Z,29.56
2018-09-01T09:39:36.349Z,29.88
2018-09-01T09:42:06.105Z,29.42
2018-09-01T09:44:34.775Z,29.06
2018-09-01T09:47:03.359Z,28.73
2018-09-01T09:49:31.699Z,28.82
2018-09-01T09:52:00.258Z,28.73
2018-09-01T09:54:28.885Z,28.95
2018-09-01T09:56:58.621Z,29.40
2018-09-01T09:59:27.131Z,29.16
2018-09-01T10:02:02.510Z,29.55
2018-09-01T10:04:31.008Z,29.71
2018-09-01T10:07:00.541Z,29.18
2018-09-01T10:09:28.613Z,29.28
2018-09-01T10:11:56.989Z,29.52
2018-09-01T10:14:25.372Z,29.37
2018-09-01T10:16:54.941Z,29.25
2018-09-01T10:19:23.772Z,29.69
2018-09-01T10:21:52.780Z,30.33
2018-09-01T10:24:21.038Z,30.32
2018-09-01T10:26:50.555Z,30.11
2018-09-01T10:29:19.882Z,29.74
2018-09-01T10:31:48.270Z,30.05
2018-09-01T10:34:18.004Z,30.00
2018-09-01T10:36:47.662Z,30.09
2018-09-01T10:39:15.868Z,30.19
2018-09-01T10:41:44.176Z,30.48
2018-09-01T10:44:13.041Z,30.04
2018-09-01T10:46:42.241Z,30.20
2018-09-01T10:49:10.880Z,29.99
2018-09-01T10:51:39.638Z,29.95
2018-09-01T10:54:08.030Z,30.01
2018-09-01T10:56:36.462Z,29.99
2018-09-01T10:59:05.257Z,29.91
2018-09-01T11:01:33.562Z,30.01
2018-09-01T11:04:01.743Z,30.23
2018-09-01T11:06:31.941Z,30.46
2018-09-01T11:09:00.300Z,30.43
2018-09-01T11:11:28.703Z,29.96
2018-09-01T11:13:57.169Z,29.13
2018-09-01T11:16:26.778Z,29.21
2018-09-01T11:18:55.647Z,29.15
2018-09-01T11:21:27.788Z,29.35
2018-09-01T11:23:58.696Z,29.54
2018-09-01T11:26:29.706Z,29.60
2018-09-01T11:29:00.319Z,29.76
2018-09-01T11:31:35.924Z,29.60
2018-09-01T11:34:07.904Z,29.75
2018-09-01T11:36:43.015Z,29.81
2018-09-01T11:39:16.403Z,29.93
2018-09-01T11:41:53.095Z,29.68
2018-09-01T11:44:25.045Z,29.28
2018-09-01T11:46:56.747Z,29.34
2018-09-01T11:49:26.193Z,29.50
2018-09-01T11:52:05.248Z,29.33
2018-09-01T11:54:34.932Z,29.39
2018-09-01T11:57:10.852Z,29.13
2018-09-01T11:59:41.095Z,29.32
2018-09-01T12:02:09.999Z,29.39
2018-09-01T12:04:39.157Z,29.49
2018-09-01T12:07:09.292Z,29.43
2018-09-01T12:09:37.862Z,29.23
2018-09-01T12:12:07.080Z,29.35
2018-09-01T12:14:35.868Z,29.49
2018-09-01T12:17:06.185Z,29.38
2018-09-01T12:19:35.206Z,29.48
2018-09-01T12:22:04.843Z,29.32
2018-09-01T12:24:33.822Z,29.52
2018-09-01T12:27:05.325Z,29.71
2018-09-01T12:29:35.849Z,29.87
2018-09-01T12:32:04.406Z,29.84
2018-09-01T12:34:33.024Z,29.86
2018-09-01T12:37:01.595Z,29.93
2018-09-01T12:39:30.006Z,30.16
2018-09-01T12:41:58.556Z,30.33
2018-09-01T12:44:27.220Z,30.43
2018-09-01T12:46:56.889Z,30.70
2018-09-01T12:49:25.727Z,31.11
2018-09-01T12:51:54.952Z,30.90
2018-09-01T12:54:23.548Z,30.72
2018-09-01T12:56:52.206Z,31.07
2018-09-01T12:59:20.892Z,31.07
2018-09-01T13:01:49.371Z,30.89
2018-09-01T13:04:17.871Z,30.99
2018-09-01T13:06:47.107Z,30.84
2018-09-01T13:09:15.760Z,30.44
2018-09-01T13:11:44.208Z,30.38
2018-09-01T13:14:12.792Z,30.50
2018-09-01T13:16:41.445Z,30.51
2018-09-01T13:19:09.988Z,30.32
2018-09-01T13:21:38.559Z,30.47
2018-09-01T13:24:07.079Z,30.22
2018-09-01T13:26:35.888Z,29.91
2018-09-01T13:29:04.744Z,29.46
2018-09-01T13:31:33.476Z,29.16
2018-09-01T13:34:02.410Z,29.07
2018-09-01T13:36:36.675Z,28.81
2018-09-01T13:39:06.360Z,28.79
2018-09-01T13:41:34.942Z,28.92
2018-09-01T13:44:03.472Z,29.06
2018-09-01T13:46:32.130Z,28.89
2018-09-01T13:49:00.725Z,28.76
2018-09-01T13:51:29.339Z,28.57
2018-09-01T13:53:57.821Z,28.55
2018-09-01T13:56:27.627Z,28.49
2018-09-01T13:58:56.147Z,28.62
2018-09-01T14:01:24.603Z,28.66
2018-09-01T14:03:53.098Z,28.42
2018-09-01T14:06:22.054Z,28.32
2018-09-01T14:08:50.496Z,28.30
2018-09-01T14:11:19.453Z,28.38
2018-09-01T14:13:48.554Z,28.40
2018-09-01T14:16:17.147Z,28.53
2018-09-01T14:18:46.033Z,28.41
2018-09-01T14:21:14.573Z,28.41
2018-09-01T14:23:43.562Z,28.31
2018-09-01T14:26:12.962Z,28.31
2018-09-01T14:28:42.382Z,28.19
2018-09-01T14:31:11.213Z,28.24
2018-09-01T14:33:39.682Z,28.14
2018-09-01T14:36:08.190Z,28.14
2018-09-01T14:38:36.881Z,28.17
2018-09-01T14:41:06.004Z,28.31
2018-09-01T14:43:34.475Z,28.42
2018-09-01T14:46:03.424Z,28.44
2018-09-01T14:48:31.896Z,28.48
2018-09-01T14:51:08.164Z,28.52
2018-09-01T14:53:37.142Z,28.48
2018-09-01T14:56:05.565Z,28.41
2018-09-01T14:58:34.120Z,28.46
2018-09-01T15:01:02.496Z,28.40
2018-09-01T15:03:30.764Z,28.28
2018-09-01T15:05:58.997Z,28.16
2018-09-01T15:08:27.251Z,28.12
2018-09-01T15:10:55.605Z,28.01
2018-09-01T15:13:23.917Z,27.88
2018-09-01T15:15:52.086Z,27.89
2018-09-01T15:18:34.346Z,27.83
2018-09-01T15:21:02.546Z,27.71
2018-09-01T15:23:30.738Z,27.59
2018-09-01T15:25:58.949Z,27.62
2018-09-01T15:28:27.184Z,27.57
2018-09-01T15:30:55.465Z,27.49
2018-09-01T15:33:23.624Z,27.52
2018-09-01T15:35:51.848Z,27.35
2018-09-01T15:38:23.355Z,27.40
2018-09-01T15:40:51.685Z,27.22
2018-09-01T15:43:19.970Z,27.15
2018-09-01T15:45:48.880Z,26.95
2018-09-01T15:48:18.170Z,26.79
2018-09-01T15:50:47.411Z,26.86
2018-09-01T15:53:15.673Z,26.78
2018-09-01T15:55:44.042Z,26.69
2018-09-01T15:58:16.350Z,26.59
2018-09-01T16:00:44.943Z,26.65
2018-09-01T16:03:13.247Z,26.52
2018-09-01T16:05:41.967Z,26.28
2018-09-01T16:08:10.773Z,26.29
2018-09-01T16:10:39.137Z,26.03
2018-09-01T16:13:07.189Z,25.99
2018-09-01T16:15:35.318Z,25.60
2018-09-01T16:18:04.565Z,25.17
2018-09-01T16:23:18.810Z,24.43
2018-09-01T16:25:47.469Z,24.02
2018-09-01T16:28:19.434Z,24.02
2018-09-01T16:30:47.893Z,23.59
2018-09-01T16:33:16.428Z,23.37
2018-09-01T16:35:45.057Z,23.25
2018-09-01T16:38:13.882Z,23.00
2018-09-01T16:40:42.605Z,22.88
2018-09-01T16:43:11.157Z,22.72
2018-09-01T16:45:39.845Z,22.52
2018-09-01T16:48:13.922Z,22.49
2018-09-01T16:50:42.432Z,22.39
2018-09-01T16:53:11.090Z,22.43
2018-09-01T16:55:39.611Z,22.19
2018-09-01T16:58:08.665Z,21.95
2018-09-01T17:00:37.317Z,21.80
2018-09-01T17:03:07.020Z,21.68
2018-09-01T17:05:35.728Z,21.63
2018-09-01T17:08:08.457Z,21.48
2018-09-01T17:10:37.026Z,21.31
2018-09-01T17:13:06.898Z,21.24
2018-09-01T17:15:36.612Z,21.10
2018-09-01T17:18:05.877Z,20.93
2018-09-01T17:20:34.398Z,20.93
2018-09-01T17:23:02.870Z,20.69
2018-09-01T17:25:32.086Z,20.64
2018-09-01T17:28:03.289Z,20.57
2018-09-01T17:30:32.360Z,20.58
2018-09-01T17:33:00.926Z,20.64
2018-09-01T17:35:30.044Z,20.49
2018-09-01T17:37:59.459Z,20.50
2018-09-01T17:40:28.035Z,20.48
2018-09-01T17:42:56.445Z,20.36
2018-09-01T17:45:24.789Z,20.65
2018-09-01T17:47:53.446Z,20.76
2018-09-01T17:50:22.009Z,20.70
2018-09-01T17:52:50.925Z,20.58
2018-09-01T17:55:20.116Z,20.37
2018-09-01T17:57:54.870Z,20.21
2018-09-01T18:00:28.125Z,20.20
2018-09-01T18:02:57.957Z,20.06
2018-09-01T18:05:28.036Z,20.00
2018-09-01T18:08:00.643Z,19.94
2018-09-01T18:10:32.417Z,19.90
2018-09-01T18:13:01.560Z,19.81
2018-09-01T18:15:31.314Z,19.79
2018-09-01T18:18:01.419Z,19.80
2018-09-01T18:20:30.658Z,19.79
2018-09-01T18:23:02.637Z,19.68
2018-09-01T18:25:31.283Z,19.70
2018-09-01T18:28:02.801Z,19.66
2018-09-01T18:30:31.892Z,19.51
2018-09-01T18:33:01.425Z,19.50
2018-09-01T18:35:30.211Z,19.46
2018-09-01T18:37:59.138Z,19.40
2018-09-01T18:40:28.698Z,19.34
2018-09-01T18:42:57.705Z,19.30
2018-09-01T18:45:26.965Z,19.20
2018-09-01T18:47:55.893Z,19.12
2018-09-01T18:50:24.481Z,19.00
2018-09-01T18:52:53.636Z,18.99
2018-09-01T18:55:23.317Z,19.01
2018-09-01T18:57:52.204Z,19.00
2018-09-01T19:00:20.660Z,18.95
2018-09-01T19:02:49.480Z,18.93
2018-09-01T19:05:20.488Z,18.89
2018-09-01T19:07:50.712Z,18.88
2018-09-01T19:13:42.479Z,18.81
2018-09-01T19:16:10.814Z,18.77
2018-09-01T19:18:39.206Z,18.67
2018-09-01T19:21:07.734Z,18.65
2018-09-01T19:23:36.011Z,18.62
2018-09-01T19:26:04.222Z,18.59
2018-09-01T19:28:32.420Z,18.58
2018-09-01T19:31:00.648Z,18.50
2018-09-01T19:33:28.767Z,18.50
2018-09-01T19:35:56.900Z,18.46
2018-09-01T19:38:25.183Z,18.37
2018-09-01T19:40:53.300Z,18.37
2018-09-01T19:43:21.787Z,18.34
2018-09-01T19:45:49.971Z,18.34
2018-09-01T19:48:18.774Z,18.36
2018-09-01T19:50:47.097Z,18.31
2018-09-01T19:53:15.489Z,18.25
2018-09-01T19:55:43.598Z,18.21
2018-09-01T19:58:13.845Z,18.15
2018-09-01T20:00:41.988Z,18.12
2018-09-01T20:03:10.172Z,18.08
2018-09-01T20:05:38.402Z,18.08
2018-09-01T20:08:06.688Z,18.03
2018-09-01T20:10:34.837Z,17.99
2018-09-01T20:13:02.983Z,17.95
2018-09-01T20:15:31.255Z,17.92
2018-09-01T20:17:59.423Z,17.90
2018-09-01T20:20:27.729Z,17.89
2018-09-01T20:22:56.010Z,17.89
2018-09-01T20:25:24.257Z,17.90
2018-09-01T20:27:53.144Z,17.89
2018-09-01T20:30:21.378Z,17.85
2018-09-01T20:32:49.628Z,17.80
2018-09-01T20:35:23.722Z,17.74
2018-09-01T20:37:53.355Z,17.78
2018-09-01T20:40:21.625Z,17.74
2018-09-01T20:42:49.969Z,17.71
2018-09-01T20:45:18.172Z,17.68
2018-09-01T20:47:46.969Z,17.73
2018-09-01T20:50:15.426Z,17.71
2018-09-01T20:52:43.588Z,17.72
2018-09-01T20:55:11.808Z,17.70
2018-09-01T20:57:40.298Z,17.75
2018-09-01T21:00:08.670Z,17.76
2018-09-01T21:02:36.773Z,17.67
2018-09-01T21:05:04.921Z,17.62
2018-09-01T21:07:33.423Z,17.54
2018-09-01T21:10:01.994Z,17.50
2018-09-01T21:12:30.110Z,17.50
2018-09-01T21:14:58.287Z,17.50
2018-09-01T21:17:27.519Z,17.44
2018-09-01T21:19:55.885Z,17.40
2018-09-01T21:22:23.958Z,17.36
2018-09-01T21:24:52.071Z,17.31
2018-09-01T21:27:20.276Z,17.21
2018-09-01T21:29:48.419Z,17.22
2018-09-01T21:32:16.554Z,17.23
2018-09-01T21:34:44.701Z,17.20
2018-09-01T21:37:14.058Z,17.18
2018-09-01T21:39:42.459Z,17.15
2018-09-01T21:42:11.423Z,17.13
2018-09-01T21:44:39.563Z,17.07
2018-09-01T21:47:07.830Z,17.05
2018-09-01T21:49:35.841Z,17.03
2018-09-01T21:52:04.211Z,17.00
2018-09-01T21:54:32.253Z,16.98
2018-09-01T21:57:00.688Z,17.02
2018-09-01T21:59:28.831Z,16.98
2018-09-01T22:02:02.451Z,16.94
2018-09-01T22:05:33.959Z,16.88
2018-09-01T22:08:02.188Z,16.72
2018-09-01T22:10:32.004Z,16.72
2018-09-01T22:13:00.104Z,16.70
2018-09-01T22:15:28.297Z,16.67
2018-09-01T22:17:56.464Z,16.67
2018-09-01T22:20:24.977Z,16.68
2018-09-01T22:22:56.361Z,16.68
2018-09-01T22:25:24.772Z,16.63
2018-09-01T22:27:52.754Z,16.61
2018-09-01T22:30:20.852Z,16.61
2018-09-01T22:32:49.032Z,16.59
2018-09-01T22:35:17.000Z,16.54
2018-09-01T22:37:45.020Z,16.47
2018-09-01T22:40:13.150Z,16.50
2018-09-01T22:42:41.208Z,16.63
2018-09-01T22:45:09.364Z,16.54
2018-09-01T22:47:38.210Z,16.46
2018-09-01T22:50:06.595Z,16.37
2018-09-01T22:52:34.669Z,16.34
2018-09-01T22:55:02.717Z,16.34
2018-09-01T22:57:30.807Z,16.33
2018-09-01T22:59:58.824Z,16.30
2018-09-01T23:02:26.770Z,16.23
2018-09-01T23:04:54.720Z,16.20
2018-09-01T23:07:22.795Z,16.21
2018-09-01T23:09:50.733Z,16.18
2018-09-01T23:12:18.716Z,16.12
2018-09-01T23:14:46.663Z,16.11
2018-09-01T23:17:14.848Z,15.98
2018-09-01T23:19:42.821Z,15.90
2018-09-01T23:22:10.858Z,15.86
2018-09-01T23:24:38.840Z,15.85
2018-09-01T23:27:06.929Z,15.76
2018-09-01T23:29:34.879Z,15.68
2018-09-01T23:32:02.844Z,15.63
2018-09-01T23:34:30.755Z,15.60
2018-09-01T23:36:58.962Z,15.60
2018-09-01T23:39:26.950Z,15.61
2018-09-01T23:41:54.834Z,15.55
2018-09-01T23:44:23.004Z,15.50
2018-09-01T23:46:51.590Z,15.53
2018-09-01T23:49:19.611Z,15.47
2018-09-01T23:51:47.513Z,15.50
2018-09-01T23:54:15.428Z,15.43
2018-09-01T23:56:43.566Z,15.37
2018-09-01T23:59:11.638Z,15.31
